This is the latest recevied weather packets stored in our database for station/object KY0TEQ-13. If no packets are shown the sender has not sent any weather packets the latest 10 day(s).
| Time | Temp. | Humidity | Pressure | Rain* | Wind** | Luminosity | Snow |
|---|---|---|---|---|---|---|---|
| 1778034323 | 7.22° C | 64% | 1296.1 hPa | 0 mm | - | 0 W/m² | - |
| 1778034020 | 7.78° C | 64% | 1295.9 hPa | 0 mm | - | 0 W/m² | - |
| 1778033718 | 7.78° C | 63% | 1296 hPa | 0 mm | - | 0 W/m² | - |
| 1778033415 | 8.89° C | 58% | 1295.3 hPa | 0 mm | - | 1 W/m² | - |
| 1778033112 | 9.44° C | 50% | 1296 hPa | 0 mm | - | 1 W/m² | - |
| 1778032810 | 9.44° C | 50% | 1295.7 hPa | 0 mm | - | 1 W/m² | - |
| 1778032507 | 9.44° C | 50% | 1295.6 hPa | 0 mm | - | 1 W/m² | - |
| 1778032204 | 9.44° C | 50% | 1295.4 hPa | 0 mm | - | 2 W/m² | - |
| 1778031901 | 9.44° C | 51% | 1295.1 hPa | 0 mm | - | 3 W/m² | - |
| 1778031597 | 8.89° C | 51% | 1294.9 hPa | 0 mm | - | 7 W/m² | - |
| 1778031295 | 8.89° C | 52% | 1294.5 hPa | 0 mm | - | 13 W/m² | - |
| 1778030990 | 9.44° C | 52% | 1294.2 hPa | 0 mm | - | 18 W/m² | - |
| 1778030687 | 9.44° C | 51% | 1294.5 hPa | 0 mm | - | 26 W/m² | - |
| 1778030384 | 9.44° C | 50% | 1294.4 hPa | 0 mm | - | 36 W/m² | - |
| 1778030082 | 10° C | 44% | 1294.3 hPa | 0 mm | - | 47 W/m² | - |
| 1778029778 | 9.44° C | 52% | 1294.2 hPa | 0 mm | - | 53 W/m² | - |
| 1778029478 | 10° C | 51% | 1294.3 hPa | 0 mm | - | 48 W/m² | - |
| 1778029173 | 10° C | 51% | 1294.5 hPa | 0 mm | - | 37 W/m² | - |
| 1778028872 | 10° C | 49% | 1294.3 hPa | 0 mm | - | 48 W/m² | - |
| 1778028566 | 10.56° C | 48% | 1294 hPa | 0 mm | - | 49 W/m² | - |
| 1778028265 | 10.56° C | 47% | 1294 hPa | 0 mm | - | 46 W/m² | - |
| 1778027960 | 11.67° C | 43% | 1293.6 hPa | 0 mm | - | 37 W/m² | - |
| 1778027657 | 11.67° C | 39% | 1293.4 hPa | 0 mm | - | 46 W/m² | - |
| 1778027354 | 12.22° C | 39% | 1293.6 hPa | 0 mm | - | 50 W/m² | - |
| 1778027049 | 12.22° C | 37% | 1293.4 hPa | 0 mm | - | 56 W/m² | - |
* Rain latest hour (hover to see other rain measurements)
** Current wind speed in m/s (hover to see current wind gust speed)